Time;durP1;ratioP1;P1;durP2;ratioP2;P2;SDS_P1;SDS_P2;PMS_P1;PMS_P2;Temp;Humidity;BMP_temperature;BMP_pressure;BME280_temperature;BME280_humidity;BME280_pressure;Samples;Min_cycle;Max_cycle;Signal;HPM_P1;HPM_P2
2023/12/13 00:01:32;;;;;;;;;;;;;;;26.12;40.83;93039.59;4986079;28;10124;-62
2023/12/13 00:04:03;;;;;;;;;;;;;;;26.10;40.63;93041.44;4985223;28;7235;-62
2023/12/13 00:06:31;;;;;;;;;;;;;;;26.12;40.76;93050.63;4987387;28;6895;-61
2023/12/13 00:09:23;;;;;;;;;;;;;;;26.11;40.64;93042.91;4987094;28;7364;-61
2023/12/13 00:12:17;;;;;;;;;;;;;;;26.11;40.77;93037.41;4992124;28;9089;-61
2023/12/13 00:14:55;;;;;;;;;;;;;;;26.11;41.15;93027.13;4966197;28;7301;-61
2023/12/13 00:17:35;;;;;;;;;;;;;;;26.11;40.69;93029.88;4974939;28;9057;-61
2023/12/13 00:20:31;;;;;;;;;;;;;;;26.10;40.56;93025.63;4996219;28;7201;-62
2023/12/13 00:23:01;;;;;;;;;;;;;;;26.09;40.52;93026.94;4964699;28;7440;-61
2023/12/13 00:25:27;;;;;;;;;;;;;;;26.08;40.95;93028.19;4959269;28;9224;-62
2023/12/13 00:28:16;;;;;;;;;;;;;;;26.09;40.60;93029.69;4971649;28;7239;-61
2023/12/13 00:30:43;;;;;;;;;;;;;;;26.08;40.94;93032.94;4964225;28;7338;-61
2023/12/13 00:33:11;;;;;;;;;;;;;;;26.07;40.68;93029.47;4959280;28;7757;-61
2023/12/13 00:35:46;;;;;;;;;;;;;;;26.07;40.71;93028.72;5003329;28;7318;-61
2023/12/13 00:38:14;;;;;;;;;;;;;;;26.08;40.27;93016.41;5014682;28;7959;-61
2023/12/13 00:41:28;;;;;;;;;;;;;;;26.08;41.26;93008.91;5010124;28;7134;-61
2023/12/13 00:43:56;;;;;;;;;;;;;;;26.10;40.93;93008.34;4938990;28;8329;-61
2023/12/13 00:46:31;;;;;;;;;;;;;;;26.09;40.35;93021.41;4949876;28;9196;-61
2023/12/13 00:49:10;;;;;;;;;;;;;;;26.08;41.27;93002.63;4967732;28;7061;-61
2023/12/13 00:51:52;;;;;;;;;;;;;;;26.09;40.42;92999.38;4962944;28;7674;-61
2023/12/13 00:54:25;;;;;;;;;;;;;;;26.07;40.62;92999.16;4949707;28;7264;-61
2023/12/13 00:56:51;;;;;;;;;;;;;;;26.07;41.06;92987.41;4957025;28;6982;-62
2023/12/13 00:59:21;;;;;;;;;;;;;;;26.08;40.39;92984.13;4972784;28;7271;-63
2023/12/13 01:01:48;;;;;;;;;;;;;;;26.08;41.27;92984.13;4992259;28;9240;-63
2023/12/13 01:04:14;;;;;;;;;;;;;;;26.08;40.39;92988.84;4976797;28;7467;-62
2023/12/13 01:06:40;;;;;;;;;;;;;;;26.10;41.19;92986.31;4970514;28;7255;-63
2023/12/13 01:09:06;;;;;;;;;;;;;;;26.09;41.13;92968.31;4974601;28;6987;-63
2023/12/13 01:11:52;;;;;;;;;;;;;;;26.12;41.06;92956.94;4975830;28;7101;-63
2023/12/13 01:14:26;;;;;;;;;;;;;;;26.10;40.98;92956.00;4976987;28;9292;-63
2023/12/13 01:17:07;;;;;;;;;;;;;;;26.07;41.19;92949.56;4991487;28;7146;-63
2023/12/13 01:19:54;;;;;;;;;;;;;;;26.09;40.36;92955.28;5006437;28;9009;-63
2023/12/13 01:22:51;;;;;;;;;;;;;;;26.10;40.54;92953.25;5056676;28;7195;-63
2023/12/13 01:25:17;;;;;;;;;;;;;;;26.10;40.98;92948.47;4991152;28;8734;-63
2023/12/13 01:27:57;;;;;;;;;;;;;;;26.10;41.16;92965.00;5018717;28;7210;-63
2023/12/13 01:30:33;;;;;;;;;;;;;;;26.09;40.31;92958.03;4995509;28;7264;-62
2023/12/13 01:33:10;;;;;;;;;;;;;;;26.09;41.19;92973.84;5018085;28;8180;-63
2023/12/13 01:35:45;;;;;;;;;;;;;;;26.07;40.89;92979.88;4991775;28;7058;-63
2023/12/13 01:38:11;;;;;;;;;;;;;;;26.09;40.46;92973.84;4984015;28;7324;-63
2023/12/13 01:40:53;;;;;;;;;;;;;;;26.10;40.74;92976.03;5001495;28;7242;-63
2023/12/13 01:43:32;;;;;;;;;;;;;;;26.07;40.49;92985.38;5019637;28;7241;-63
2023/12/13 01:46:14;;;;;;;;;;;;;;;26.07;40.63;92987.41;4995532;28;7230;-63
2023/12/13 01:48:51;;;;;;;;;;;;;;;26.06;40.56;92992.16;5010955;28;8939;-63
2023/12/13 01:51:18;;;;;;;;;;;;;;;26.07;41.22;93001.91;4990932;28;7211;-63
2023/12/13 01:53:44;;;;;;;;;;;;;;;26.09;41.17;93013.16;5003799;28;9299;-63
2023/12/13 01:56:13;;;;;;;;;;;;;;;26.10;40.87;93008.34;4996666;28;7159;-63
2023/12/13 01:59:00;;;;;;;;;;;;;;;26.06;41.21;92992.16;5011930;28;7010;-62
2023/12/13 02:01:45;;;;;;;;;;;;;;;26.08;40.77;92995.13;5011608;28;7118;-63
2023/12/13 02:04:28;;;;;;;;;;;;;;;26.08;40.60;92980.59;5067198;28;6995;-63
2023/12/13 02:06:55;;;;;;;;;;;;;;;26.06;40.48;92975.63;5068224;28;9265;-56
2023/12/13 02:09:39;;;;;;;;;;;;;;;26.06;41.09;92975.63;5050887;28;7274;-56
2023/12/13 02:12:15;;;;;;;;;;;;;;;26.05;41.11;92973.44;5045239;28;7516;-56
2023/12/13 02:14:44;;;;;;;;;;;;;;;26.03;41.27;92957.44;5066206;28;7402;-56
2023/12/13 02:17:13;;;;;;;;;;;;;;;26.05;40.97;92952.13;5065190;28;8867;-55
2023/12/13 02:20:15;;;;;;;;;;;;;;;26.07;40.74;92943.31;5069732;28;7312;-55
2023/12/13 02:22:44;;;;;;;;;;;;;;;26.06;40.94;92937.06;4994818;28;7226;-55
2023/12/13 02:25:24;;;;;;;;;;;;;;;26.04;40.71;92934.13;4972365;28;7265;-56
2023/12/13 02:28:08;;;;;;;;;;;;;;;26.03;40.99;92929.88;4986879;28;7182;-56
2023/12/13 02:30:34;;;;;;;;;;;;;;;26.02;40.75;92922.91;4970504;28;7292;-56
2023/12/13 02:33:16;;;;;;;;;;;;;;;26.05;41.44;92927.34;4973559;28;7054;-55
2023/12/13 02:35:53;;;;;;;;;;;;;;;26.04;40.68;92920.34;4967614;28;8718;-56
2023/12/13 02:38:29;;;;;;;;;;;;;;;26.03;40.73;92910.59;4966766;28;8802;-55
2023/12/13 02:41:02;;;;;;;;;;;;;;;26.06;41.15;92897.75;4974704;28;9394;-56
2023/12/13 02:43:30;;;;;;;;;;;;;;;26.07;40.65;92893.72;4997948;28;7485;-56
2023/12/13 02:46:08;;;;;;;;;;;;;;;26.08;40.98;92884.16;4986129;28;9054;-55
2023/12/13 02:48:36;;;;;;;;;;;;;;;26.09;41.31;92880.16;4975992;28;7244;-55
2023/12/13 02:51:11;;;;;;;;;;;;;;;26.10;41.14;92876.09;4989880;28;7234;-55
2023/12/13 02:53:40;;;;;;;;;;;;;;;26.10;40.87;92878.84;4997650;28;7191;-55
2023/12/13 02:56:18;;;;;;;;;;;;;;;26.09;40.83;92874.63;4991578;28;7007;-55
2023/12/13 02:58:56;;;;;;;;;;;;;;;26.08;40.43;92870.38;5062736;28;7584;-56
2023/12/13 03:01:53;;;;;;;;;;;;;;;26.08;40.45;92865.63;5060821;28;7205;-56
2023/12/13 03:04:20;;;;;;;;;;;;;;;26.11;40.43;92866.56;5063559;28;9042;-55
2023/12/13 03:06:54;;;;;;;;;;;;;;;26.10;40.77;92871.31;5043591;28;7032;-55
2023/12/13 03:09:22;;;;;;;;;;;;;;;26.09;40.74;92872.63;5061806;28;7088;-55
2023/12/13 03:11:57;;;;;;;;;;;;;;;26.09;40.58;92872.63;5053701;28;7232;-55
2023/12/13 03:14:25;;;;;;;;;;;;;;;26.09;41.17;92869.88;5035553;28;6945;-55
2023/12/13 03:16:54;;;;;;;;;;;;;;;26.07;41.12;92872.41;5059579;28;7022;-65
2023/12/13 03:19:41;;;;;;;;;;;;;;;26.09;41.23;92864.34;5053141;28;9031;-65
2023/12/13 03:22:07;;;;;;;;;;;;;;;26.04;41.11;92856.22;5043549;28;6986;-65
2023/12/13 03:24:35;;;;;;;;;;;;;;;26.07;40.66;92863.41;5054534;28;7274;-64
2023/12/13 03:27:04;;;;;;;;;;;;;;;26.08;40.70;92862.09;5051536;28;9347;-65
2023/12/13 03:29:30;;;;;;;;;;;;;;;26.08;40.46;92856.59;5053382;28;9108;-65
2023/12/13 03:32:14;;;;;;;;;;;;;;;26.08;40.85;92862.88;5044476;28;7239;-65
2023/12/13 03:34:48;;;;;;;;;;;;;;;26.08;40.47;92868.38;5058677;28;8464;-65
2023/12/13 03:37:19;;;;;;;;;;;;;;;26.06;40.49;92870.94;5056499;28;7139;-65
2023/12/13 03:40:00;;;;;;;;;;;;;;;26.07;40.64;92871.66;5076253;28;8421;-65
2023/12/13 03:42:31;;;;;;;;;;;;;;;26.06;40.53;92875.69;5056274;28;9102;-65
2023/12/13 03:45:00;;;;;;;;;;;;;;;26.05;40.55;92865.97;5060594;28;10689;-66
2023/12/13 03:47:32;;;;;;;;;;;;;;;26.09;40.42;92880.16;5057757;28;7193;-66
2023/12/13 03:50:08;;;;;;;;;;;;;;;26.10;40.46;92870.59;5065740;28;7696;-66
2023/12/13 03:52:43;;;;;;;;;;;;;;;26.07;41.01;92869.66;5051190;28;8064;-66
2023/12/13 03:55:12;;;;;;;;;;;;;;;26.10;40.98;92870.59;5045071;28;9093;-66
2023/12/13 03:58:10;;;;;;;;;;;;;;;26.08;40.31;92879.41;5044015;28;7531;-66
2023/12/13 04:00:54;;;;;;;;;;;;;;;26.10;40.08;92878.84;4972919;28;7226;-66
2023/12/13 04:03:42;;;;;;;;;;;;;;;26.08;40.45;92854.59;4989737;28;7004;-66
2023/12/13 04:06:22;;;;;;;;;;;;;;;26.07;40.15;92839.34;4990162;28;7238;-65
2023/12/13 04:08:50;;;;;;;;;;;;;;;26.09;40.88;92834.06;4993135;28;8737;-66
2023/12/13 04:11:19;;;;;;;;;;;;;;;26.06;40.01;92831.63;4977007;28;7144;-66
2023/12/13 04:13:50;;;;;;;;;;;;;;;26.08;40.87;92834.56;4988239;28;7258;-66
2023/12/13 04:16:32;;;;;;;;;;;;;;;26.10;40.14;92827.25;4987044;28;8201;-65
2023/12/13 04:19:03;;;;;;;;;;;;;;;26.09;40.09;92831.28;4960719;28;8685;-65
2023/12/13 04:21:38;;;;;;;;;;;;;;;26.11;40.31;92827.97;4989146;28;7232;-65
2023/12/13 04:24:24;;;;;;;;;;;;;;;26.09;39.96;92823.03;4976918;28;7549;-66
2023/12/13 04:27:06;;;;;;;;;;;;;;;26.10;40.83;92829.25;4982091;28;7260;-62
2023/12/13 04:30:16;;;;;;;;;;;;;;;26.10;40.68;92840.28;4978363;28;8495;-62
2023/12/13 04:32:56;;;;;;;;;;;;;;;26.09;40.41;92830.56;4944535;28;7418;-62
2023/12/13 04:35:58;;;;;;;;;;;;;;;26.08;40.31;92840.84;4948367;28;7146;-61
2023/12/13 04:38:34;;;;;;;;;;;;;;;26.05;39.90;92833.66;4987699;28;7000;-62
2023/12/13 04:41:17;;;;;;;;;;;;;;;26.06;40.57;92832.34;4990937;28;7212;-62
2023/12/13 04:43:43;;;;;;;;;;;;;;;26.06;40.65;92826.84;4989422;28;9459;-62
2023/12/13 04:46:09;;;;;;;;;;;;;;;26.08;40.57;92837.31;5009160;28;7432;-62
2023/12/13 04:48:40;;;;;;;;;;;;;;;26.06;40.59;92826.84;5002206;28;7358;-61
2023/12/13 04:51:18;;;;;;;;;;;;;;;26.07;40.38;92816.56;5017435;28;6895;-62
2023/12/13 04:54:09;;;;;;;;;;;;;;;26.08;40.57;92818.78;4989215;28;9046;-61
2023/12/13 04:56:46;;;;;;;;;;;;;;;26.08;40.26;92816.03;4977455;28;6970;-61
2023/12/13 04:59:22;;;;;;;;;;;;;;;26.08;40.17;92813.28;5012028;28;6972;-61
2023/12/13 05:02:00;;;;;;;;;;;;;;;26.08;39.90;92802.25;5003255;28;7195;-61
2023/12/13 05:04:36;;;;;;;;;;;;;;;26.08;40.14;92805.00;5059754;28;7115;-61
2023/12/13 05:07:08;;;;;;;;;;;;;;;26.02;40.51;92798.19;5041073;28;7249;-61
2023/12/13 05:09:43;;;;;;;;;;;;;;;26.08;40.54;92807.00;5049942;28;7189;-62
2023/12/13 05:12:46;;;;;;;;;;;;;;;26.07;40.39;92802.78;5060127;28;7250;-61
2023/12/13 05:15:27;;;;;;;;;;;;;;;26.07;39.86;92809.03;5054149;28;7775;-62
2023/12/13 05:17:53;;;;;;;;;;;;;;;26.07;40.07;92787.00;5050274;28;7252;-61
2023/12/13 05:20:19;;;;;;;;;;;;;;;26.04;40.20;92784.59;5063953;28;7289;-61
2023/12/13 05:23:11;;;;;;;;;;;;;;;26.04;40.07;92793.59;5051792;28;7666;-60
2023/12/13 05:25:40;;;;;;;;;;;;;;;26.02;40.80;92790.66;5045428;28;7244;-61
2023/12/13 05:28:37;;;;;;;;;;;;;;;26.00;40.78;92787.00;5049197;28;9094;-62
2023/12/13 05:31:22;;;;;;;;;;;;;;;26.05;39.93;92775.78;5064784;28;7433;-61
2023/12/13 05:33:52;;;;;;;;;;;;;;;26.08;40.45;92780.22;5062966;28;6989;-61
2023/12/13 05:36:33;;;;;;;;;;;;;;;26.05;40.59;92786.06;5067040;28;7635;-62
2023/12/13 05:39:04;;;;;;;;;;;;;;;26.04;40.63;92774.31;5068967;28;8168;-62
2023/12/13 05:41:37;;;;;;;;;;;;;;;26.07;40.25;92778.00;5061053;28;7245;-62
2023/12/13 05:44:05;;;;;;;;;;;;;;;26.04;40.29;92777.06;5064271;28;7164;-62
2023/12/13 05:46:33;;;;;;;;;;;;;;;26.07;40.29;92775.97;5046366;28;7017;-61
2023/12/13 05:49:05;;;;;;;;;;;;;;;26.03;40.57;92772.84;5055146;28;6971;-61
2023/12/13 05:51:31;;;;;;;;;;;;;;;26.03;39.93;92772.13;5059355;28;7007;-62
2023/12/13 05:53:57;;;;;;;;;;;;;;;26.05;40.49;92775.06;5059924;28;9034;-61
2023/12/13 05:56:32;;;;;;;;;;;;;;;26.04;40.23;92773.56;5048020;28;7036;-62
2023/12/13 05:58:58;;;;;;;;;;;;;;;26.04;40.97;92766.06;5053275;28;7260;-62
2023/12/13 06:01:55;;;;;;;;;;;;;;;26.07;41.08;92756.69;5049127;28;7231;-61
2023/12/13 06:04:25;;;;;;;;;;;;;;;26.06;40.78;92757.97;5044867;28;9123;-62
2023/12/13 06:07:17;;;;;;;;;;;;;;;26.11;40.51;92756.34;5061170;28;8706;-61
2023/12/13 06:09:57;;;;;;;;;;;;;;;26.09;40.70;92748.63;5048677;28;8909;-61
2023/12/13 06:12:25;;;;;;;;;;;;;;;26.10;40.61;92749.34;5048232;28;7589;-61
2023/12/13 06:14:58;;;;;;;;;;;;;;;26.07;40.33;92739.41;5067044;28;7246;-62
2023/12/13 06:17:57;;;;;;;;;;;;;;;26.09;40.45;92731.34;5072492;28;7231;-62
2023/12/13 06:20:41;;;;;;;;;;;;;;;26.09;40.11;92734.84;4994483;28;7280;-61
2023/12/13 06:23:34;;;;;;;;;;;;;;;26.09;40.48;92723.84;4988306;28;6982;-62
2023/12/13 06:26:00;;;;;;;;;;;;;;;26.10;40.33;92727.31;5010461;28;6991;-62
2023/12/13 06:28:28;;;;;;;;;;;;;;;26.09;40.17;92742.38;5007626;28;8463;-62
2023/12/13 06:31:26;;;;;;;;;;;;;;;26.11;40.52;92750.81;4996451;28;7206;-61
2023/12/13 06:34:01;;;;;;;;;;;;;;;26.08;40.50;92758.19;5003054;28;8991;-62
2023/12/13 06:36:59;;;;;;;;;;;;;;;26.09;40.00;92765.16;5012130;28;7211;-61
2023/12/13 06:39:30;;;;;;;;;;;;;;;26.08;40.39;92760.94;4901373;29;9191;-62
2023/12/13 06:42:14;;;;;;;;;;;;;;;26.07;39.81;92755.94;4914958;29;7236;-61
2023/12/13 06:44:41;;;;;;;;;;;;;;;26.08;40.39;92758.19;4915012;29;7185;-61
2023/12/13 06:47:36;;;;;;;;;;;;;;;26.06;40.95;92762.72;4920440;29;9092;-60
2023/12/13 06:50:07;;;;;;;;;;;;;;;26.01;41.78;92769.91;4880754;29;7006;-60
2023/12/13 06:53:04;;;;;;;;;;;;;;;25.95;42.37;92769.34;4880522;29;7029;-60
2023/12/13 06:55:39;;;;;;;;;;;;;;;25.98;41.80;92765.50;4885413;29;7410;-60
2023/12/13 06:58:06;;;;;;;;;;;;;;;25.97;41.51;92753.00;4913840;29;6978;-60
2023/12/13 07:00:47;;;;;;;;;;;;;;;26.01;41.37;92753.38;4914199;29;7051;-60
2023/12/13 07:03:14;;;;;;;;;;;;;;;26.00;41.46;92754.66;4910812;29;9218;-59
2023/12/13 07:05:40;;;;;;;;;;;;;;;26.00;40.92;92748.41;4908582;29;6986;-60
2023/12/13 07:08:28;;;;;;;;;;;;;;;26.04;40.80;92757.03;4918278;29;8842;-59
2023/12/13 07:10:55;;;;;;;;;;;;;;;26.05;40.74;92737.22;4919332;29;7035;-59
2023/12/13 07:13:24;;;;;;;;;;;;;;;26.06;40.39;92741.44;4905727;29;7211;-60
2023/12/13 07:15:52;;;;;;;;;;;;;;;26.07;41.02;92742.19;4959887;28;7239;-60
2023/12/13 07:18:21;;;;;;;;;;;;;;;26.05;40.87;92742.75;4972663;28;7073;-60
2023/12/13 07:20:47;;;;;;;;;;;;;;;26.07;40.94;92753.19;4971937;28;6991;-60
2023/12/13 07:23:13;;;;;;;;;;;;;;;26.05;40.34;92750.25;4961126;28;9416;-60
2023/12/13 07:25:41;;;;;;;;;;;;;;;26.07;41.35;92753.19;4985756;28;7147;-60
2023/12/13 07:28:16;;;;;;;;;;;;;;;26.05;41.25;92753.75;5060913;28;7115;-60
2023/12/13 07:30:49;;;;;;;;;;;;;;;26.05;40.59;92742.75;5048658;28;7226;-60
2023/12/13 07:33:15;;;;;;;;;;;;;;;26.07;41.08;92745.66;5070362;28;9096;-60
2023/12/13 07:35:57;;;;;;;;;;;;;;;26.08;40.76;92747.16;5049547;28;7242;-59
2023/12/13 07:38:32;;;;;;;;;;;;;;;26.09;40.31;92737.63;5067999;28;7255;-59
2023/12/13 07:41:06;;;;;;;;;;;;;;;26.09;40.31;92745.88;5065875;28;6993;-60
2023/12/13 07:43:35;;;;;;;;;;;;;;;26.08;39.93;92740.88;5045667;28;7319;-59
2023/12/13 07:46:01;;;;;;;;;;;;;;;26.05;40.30;92734.47;5043926;28;8096;-59
2023/12/13 07:48:29;;;;;;;;;;;;;;;26.03;40.51;92711.50;5052039;28;9130;-60
2023/12/13 07:51:03;;;;;;;;;;;;;;;26.01;40.67;92703.78;5040922;28;7000;-60
2023/12/13 07:53:29;;;;;;;;;;;;;;;26.03;39.85;92717.03;5044673;28;7926;-59
2023/12/13 07:55:56;;;;;;;;;;;;;;;26.05;39.48;92719.94;5065802;28;7147;-60
2023/12/13 07:58:26;;;;;;;;;;;;;;;26.04;40.12;92716.47;5060937;28;8978;-59
2023/12/13 08:00:58;;;;;;;;;;;;;;;26.03;39.15;92717.03;5053934;28;6986;-59
2023/12/13 08:03:28;;;;;;;;;;;;;;;25.99;39.12;92709.13;5069151;28;9152;-60
2023/12/13 08:05:54;;;;;;;;;;;;;;;26.00;38.80;92702.31;5057679;28;9860;-60
2023/12/13 08:08:20;;;;;;;;;;;;;;;26.01;39.73;92703.78;5060092;28;8897;-60
2023/12/13 08:10:46;;;;;;;;;;;;;;;25.98;38.66;92702.16;5054956;28;8413;-60
2023/12/13 08:13:12;;;;;;;;;;;;;;;26.03;38.44;92700.50;5045111;28;7196;-60
2023/12/13 08:15:39;;;;;;;;;;;;;;;26.02;38.66;92699.75;5049882;28;7513;-60
2023/12/13 08:18:10;;;;;;;;;;;;;;;26.05;38.72;92708.94;5039359;28;9059;-59
2023/12/13 08:20:37;;;;;;;;;;;;;;;26.04;38.36;92713.69;5055807;28;8290;-60
2023/12/13 08:23:04;;;;;;;;;;;;;;;26.00;38.60;92713.34;5049535;28;6999;-60
2023/12/13 08:25:38;;;;;;;;;;;;;;;26.03;38.58;92728.03;5049797;28;7048;-59
2023/12/13 08:28:04;;;;;;;;;;;;;;;26.04;37.59;92730.22;5063177;28;7362;-60
2023/12/13 08:30:32;;;;;;;;;;;;;;;26.01;37.95;92725.81;5043013;28;7138;-60
2023/12/13 08:33:00;;;;;;;;;;;;;;;26.02;37.81;92735.56;5053963;28;7246;-60
2023/12/13 08:35:32;;;;;;;;;;;;;;;25.99;37.84;92739.41;5045594;28;9266;-60
2023/12/13 08:37:59;;;;;;;;;;;;;;;25.99;38.22;92733.91;5052282;28;8753;-60
2023/12/13 08:40:31;;;;;;;;;;;;;;;26.02;38.20;92734.81;5065194;28;7163;-60
2023/12/13 08:43:30;;;;;;;;;;;;;;;26.03;37.83;92739.06;5056789;28;7733;-60
2023/12/13 08:45:56;;;;;;;;;;;;;;;25.99;37.44;92744.22;5048419;28;6987;-60
2023/12/13 08:48:35;;;;;;;;;;;;;;;26.01;38.32;92744.41;5038719;28;7625;-60
2023/12/13 08:51:38;;;;;;;;;;;;;;;26.02;37.47;92749.34;5059632;28;8726;-60
2023/12/13 08:54:19;;;;;;;;;;;;;;;26.03;38.46;92756.31;5010633;28;9178;-60
2023/12/13 08:56:54;;;;;;;;;;;;;;;26.03;37.89;92761.81;5008635;28;9343;-61
2023/12/13 08:59:22;;;;;;;;;;;;;;;26.02;37.67;92760.38;4984241;28;7132;-60
2023/12/13 09:01:49;;;;;;;;;;;;;;;25.98;38.53;92745.50;4988178;28;9031;-60
2023/12/13 09:04:30;;;;;;;;;;;;;;;26.00;38.38;92745.66;4990503;28;7161;-61
2023/12/13 09:07:06;;;;;;;;;;;;;;;26.05;37.97;92748.25;5011000;28;7206;-66
2023/12/13 09:09:32;;;;;;;;;;;;;;;26.04;38.19;92737.75;4995066;28;7264;-66
2023/12/13 09:12:33;;;;;;;;;;;;;;;26.03;38.60;92737.03;5012100;28;7591;-66
2023/12/13 09:14:59;;;;;;;;;;;;;;;26.02;37.96;92735.56;4990801;28;7181;-65
2023/12/13 09:17:37;;;;;;;;;;;;;;;26.04;38.09;92735.75;4992488;28;7294;-66
2023/12/13 09:20:15;;;;;;;;;;;;;;;26.02;38.53;92741.06;4978189;28;7685;-66
2023/12/13 09:23:01;;;;;;;;;;;;;;;26.06;38.18;92735.19;4981311;28;7192;-66
2023/12/13 09:25:59;;;;;;;;;;;;;;;26.05;38.69;92723.44;5008256;28;7541;-66
2023/12/13 09:28:29;;;;;;;;;;;;;;;26.05;38.04;92728.22;4990712;28;7612;-65
2023/12/13 09:31:04;;;;;;;;;;;;;;;26.02;38.53;92718.28;4987870;28;7180;-66
2023/12/13 09:33:34;;;;;;;;;;;;;;;26.05;37.94;92734.47;5001548;28;7874;-66
2023/12/13 09:36:03;;;;;;;;;;;;;;;26.04;39.11;92727.47;5002023;28;7428;-66
2023/12/13 09:38:30;;;;;;;;;;;;;;;26.05;38.64;92739.25;5010384;28;7191;-66
2023/12/13 09:40:57;;;;;;;;;;;;;;;26.03;38.54;92734.25;5007971;28;6905;-66
2023/12/13 09:43:34;;;;;;;;;;;;;;;26.06;38.40;92738.69;4993770;28;9379;-66
2023/12/13 09:46:17;;;;;;;;;;;;;;;26.05;38.16;92737.22;5011065;28;8419;-66
2023/12/13 09:48:45;;;;;;;;;;;;;;;26.02;38.12;92735.56;4998576;28;9210;-66
2023/12/13 09:51:12;;;;;;;;;;;;;;;26.04;38.92;92729.50;5001786;28;9113;-66
2023/12/13 09:53:40;;;;;;;;;;;;;;;26.05;38.60;92739.97;5004793;28;7519;-66
2023/12/13 09:56:24;;;;;;;;;;;;;;;26.06;38.66;92738.69;5011922;28;9168;-66
2023/12/13 09:58:51;;;;;;;;;;;;;;;26.06;38.57;92733.16;5000551;28;7277;-66
2023/12/13 10:01:35;;;;;;;;;;;;;;;26.05;38.53;92736.50;5002047;28;8816;-66
2023/12/13 10:04:03;;;;;;;;;;;;;;;26.06;38.26;92741.44;5001414;28;7010;-66
2023/12/13 10:06:39;;;;;;;;;;;;;;;26.04;39.04;92743.28;5048978;28;7278;-66
2023/12/13 10:09:07;;;;;;;;;;;;;;;26.06;38.83;92738.69;5069294;28;7829;-66
2023/12/13 10:11:54;;;;;;;;;;;;;;;26.03;38.59;92739.78;5055585;28;8801;-66
2023/12/13 10:14:23;;;;;;;;;;;;;;;26.03;38.68;92739.78;5047177;28;7066;-66
2023/12/13 10:17:20;;;;;;;;;;;;;;;26.05;38.76;92737.22;5040495;28;7474;-60
2023/12/13 10:19:47;;;;;;;;;;;;;;;26.04;38.61;92740.50;4971925;28;9188;-61
2023/12/13 10:22:30;;;;;;;;;;;;;;;26.02;38.44;92723.81;4973688;28;7200;-61
2023/12/13 10:25:08;;;;;;;;;;;;;;;26.04;38.77;92735.75;4975256;28;7059;-61
2023/12/13 10:27:36;;;;;;;;;;;;;;;26.04;39.18;92735.00;4972877;28;9074;-61
2023/12/13 10:30:26;;;;;;;;;;;;;;;26.04;38.81;92735.75;4981350;28;7160;-61
2023/12/13 10:33:28;;;;;;;;;;;;;;;26.04;38.79;92737.75;4966620;28;7124;-61
2023/12/13 10:36:11;;;;;;;;;;;;;;;26.03;38.58;92728.75;4967005;28;7260;-60
2023/12/13 10:38:54;;;;;;;;;;;;;;;26.02;39.37;92732.81;4965422;28;7394;-60
2023/12/13 10:41:39;;;;;;;;;;;;;;;26.03;39.38;92748.03;4982704;28;6891;-61
2023/12/13 10:44:31;;;;;;;;;;;;;;;26.03;38.85;92747.31;4987346;28;7247;-61
2023/12/13 10:47:25;;;;;;;;;;;;;;;26.03;38.69;92756.31;4985576;28;8814;-61
2023/12/13 10:49:59;;;;;;;;;;;;;;;26.04;39.11;92755.03;4982539;28;7352;-60
2023/12/13 10:52:28;;;;;;;;;;;;;;;26.02;39.18;92765.88;4967500;28;7549;-61
2023/12/13 10:54:55;;;;;;;;;;;;;;;26.02;39.14;92754.84;4986836;28;9545;-61
2023/12/13 10:57:31;;;;;;;;;;;;;;;26.02;39.32;92754.84;5050106;28;7238;-61
2023/12/13 10:59:59;;;;;;;;;;;;;;;26.03;38.97;92739.78;5039367;28;7276;-61
2023/12/13 11:03:03;;;;;;;;;;;;;;;26.04;39.49;92741.25;5052559;28;7321;-61
2023/12/13 11:05:37;;;;;;;;;;;;;;;26.04;39.15;92740.50;5041331;28;7833;-60
2023/12/13 11:08:20;;;;;;;;;;;;;;;26.06;39.24;92732.44;5060206;28;9492;-61
2023/12/13 11:11:02;;;;;;;;;;;;;;;26.04;39.28;92719.22;5045770;28;7255;-61
2023/12/13 11:13:39;;;;;;;;;;;;;;;26.00;39.66;92715.38;5038823;28;7318;-61
2023/12/13 11:16:57;;;;;;;;;;;;;;;25.93;39.22;92716.84;5044142;28;7668;-61
2023/12/13 11:19:27;;;;;;;;;;;;;;;25.91;39.29;92710.41;4973502;28;9261;-60
2023/12/13 11:21:59;;;;;;;;;;;;;;;25.85;39.48;92696.09;4974013;28;8761;-60
2023/12/13 11:24:32;;;;;;;;;;;;;;;25.84;39.52;92705.63;4975279;28;6979;-61
2023/12/13 11:27:19;;;;;;;;;;;;;;;25.88;39.63;92700.50;4985845;28;7097;-65
2023/12/13 11:29:53;;;;;;;;;;;;;;;25.90;39.40;92698.66;4974518;28;7169;-65
2023/12/13 11:32:43;;;;;;;;;;;;;;;25.92;39.35;92701.63;4982258;28;6991;-65
2023/12/13 11:35:22;;;;;;;;;;;;;;;25.94;39.87;92690.03;4982160;28;7501;-65
2023/12/13 11:37:54;;;;;;;;;;;;;;;25.99;39.35;92689.81;4988021;28;8789;-65
2023/12/13 11:40:21;;;;;;;;;;;;;;;26.00;40.04;92691.31;4972532;28;9217;-66
2023/12/13 11:43:02;;;;;;;;;;;;;;;26.02;39.61;92688.00;4972379;28;9057;-66
2023/12/13 11:45:58;;;;;;;;;;;;;;;26.03;39.47;92684.66;4981097;28;8414;-65
2023/12/13 11:48:24;;;;;;;;;;;;;;;26.05;39.95;92686.91;4951877;28;9248;-66
2023/12/13 11:50:52;;;;;;;;;;;;;;;26.07;39.13;92679.53;4946314;28;7591;-66
2023/12/13 11:53:51;;;;;;;;;;;;;;;26.09;39.72;92684.53;4949411;28;7378;-66
2023/12/13 11:56:27;;;;;;;;;;;;;;;26.12;39.67;92681.38;4944209;28;7543;-65
2023/12/13 11:58:54;;;;;;;;;;;;;;;26.10;39.81;92681.19;4968180;28;8575;-65
2023/12/13 12:01:31;;;;;;;;;;;;;;;26.10;39.22;92672.19;4967655;28;9046;-65
2023/12/13 12:04:00;;;;;;;;;;;;;;;26.14;39.65;92672.56;4971917;28;7308;-66
2023/12/13 12:06:27;;;;;;;;;;;;;;;26.11;39.64;92666.16;4953947;28;9411;-65
2023/12/13 12:09:14;;;;;;;;;;;;;;;26.13;39.69;92658.06;4957101;28;7857;-66
2023/12/13 12:12:05;;;;;;;;;;;;;;;26.12;39.31;92658.63;4973244;28;9090;-66
2023/12/13 12:14:36;;;;;;;;;;;;;;;26.15;39.81;92647.22;4955718;28;7226;-65
2023/12/13 12:17:23;;;;;;;;;;;;;;;26.16;39.68;92645.91;4960283;28;9152;-66
2023/12/13 12:19:56;;;;;;;;;;;;;;;26.17;40.00;92644.63;4954134;28;9056;-65
2023/12/13 12:22:24;;;;;;;;;;;;;;;26.19;40.07;92643.34;4963474;28;6996;-65
2023/12/13 12:25:08;;;;;;;;;;;;;;;26.24;39.92;92636.88;4991374;28;7136;-66
2023/12/13 12:27:54;;;;;;;;;;;;;;;26.23;39.84;92638.91;4991483;28;9125;-66
2023/12/13 12:30:29;;;;;;;;;;;;;;;26.22;39.54;92631.19;4985335;28;9109;-66
2023/12/13 12:32:55;;;;;;;;;;;;;;;26.21;39.78;92632.50;5045380;28;6950;-66
2023/12/13 12:35:22;;;;;;;;;;;;;;;26.20;39.70;92631.03;5054108;28;6985;-56
2023/12/13 12:37:54;;;;;;;;;;;;;;;26.21;39.33;92629.75;5041310;28;7397;-56
2023/12/13 12:40:23;;;;;;;;;;;;;;;26.20;39.39;92642.06;5043189;28;6997;-56
2023/12/13 12:42:56;;;;;;;;;;;;;;;26.19;40.17;92641.31;5066631;28;7192;-55
2023/12/13 12:45:54;;;;;;;;;;;;;;;26.20;39.51;92628.28;5046801;28;7296;-56
2023/12/13 12:48:30;;;;;;;;;;;;;;;26.16;39.89;92623.88;5041815;28;9061;-56
2023/12/13 12:51:15;;;;;;;;;;;;;;;26.20;39.50;92623.50;5063586;28;7239;-55
2023/12/13 12:53:41;;;;;;;;;;;;;;;26.16;39.53;92612.84;5047875;28;7896;-56
2023/12/13 12:56:27;;;;;;;;;;;;;;;26.18;39.87;92620.56;5044647;28;7264;-56
2023/12/13 12:59:39;;;;;;;;;;;;;;;26.16;39.44;92615.59;5056688;28;7528;-56
2023/12/13 13:02:14;;;;;;;;;;;;;;;26.13;39.66;92613.22;5047091;28;7196;-56
2023/12/13 13:04:40;;;;;;;;;;;;;;;26.15;39.49;92614.16;5050351;28;9095;-56
2023/12/13 13:07:18;;;;;;;;;;;;;;;26.13;39.19;92610.47;5045679;28;9052;-56
2023/12/13 13:09:52;;;;;;;;;;;;;;;26.15;38.55;92614.16;5055547;28;7234;-56
2023/12/13 13:12:41;;;;;;;;;;;;;;;26.18;39.33;92620.56;5066252;28;7168;-55
2023/12/13 13:15:16;;;;;;;;;;;;;;;26.19;39.12;92613.03;5054231;28;9118;-55
2023/12/13 13:17:42;;;;;;;;;;;;;;;26.20;38.92;92614.50;5064605;28;9324;-56
2023/12/13 13:20:12;;;;;;;;;;;;;;;26.18;38.81;92612.31;5055932;28;8524;-56
2023/12/13 13:22:40;;;;;;;;;;;;;;;26.18;38.87;92617.81;5061760;28;9058;-56
2023/12/13 13:25:09;;;;;;;;;;;;;;;26.14;38.95;92614.72;5057334;28;7054;-55
2023/12/13 13:27:38;;;;;;;;;;;;;;;26.15;38.82;92619.66;5057670;28;9051;-56
2023/12/13 13:30:07;;;;;;;;;;;;;;;26.15;39.08;92627.94;5069918;28;7283;-55
2023/12/13 13:32:33;;;;;;;;;;;;;;;26.14;38.67;92620.94;5044245;28;7230;-56
2023/12/13 13:34:59;;;;;;;;;;;;;;;26.16;39.44;92620.41;5052322;28;7017;-55
2023/12/13 13:37:37;;;;;;;;;;;;;;;26.16;39.34;92626.63;5045105;28;9146;-55
2023/12/13 13:40:07;;;;;;;;;;;;;;;26.13;38.99;92616.72;5046596;28;7337;-56
2023/12/13 13:42:33;;;;;;;;;;;;;;;26.17;39.33;92619.84;5044558;28;6980;-56
2023/12/13 13:45:01;;;;;;;;;;;;;;;26.19;39.42;92618.56;5049191;28;9092;-56